createdAt,value
2019-05-21T00:01:05.686Z,72.58
2019-05-21T00:06:27.879Z,72.60
2019-05-21T00:11:50.158Z,72.92
2019-05-21T00:17:12.107Z,73.37
2019-05-21T00:22:33.991Z,73.48
2019-05-21T00:28:08.299Z,74.19
2019-05-21T00:34:06.405Z,74.41
2019-05-21T00:40:04.479Z,74.89
2019-05-21T00:45:26.754Z,74.95
2019-05-21T00:50:49.474Z,75.11
2019-05-21T00:56:11.765Z,75.07
2019-05-21T01:01:33.970Z,76.30
2019-05-21T01:06:56.213Z,76.48
2019-05-21T01:12:18.425Z,76.58
2019-05-21T01:17:40.685Z,76.25
2019-05-21T01:23:02.726Z,75.67
2019-05-21T01:28:24.695Z,75.64
2019-05-21T01:33:46.796Z,76.08
2019-05-21T01:39:08.954Z,76.52
2019-05-21T01:44:31.159Z,76.85
2019-05-21T01:49:53.492Z,77.65
2019-05-21T01:55:15.323Z,78.31
2019-05-21T02:00:37.397Z,79.18
2019-05-21T02:05:59.502Z,78.76
2019-05-21T02:11:21.377Z,78.13
2019-05-21T02:16:43.266Z,77.42
2019-05-21T02:22:05.103Z,76.82
2019-05-21T02:27:27.064Z,76.61
2019-05-21T02:32:48.920Z,76.92
2019-05-21T02:38:11.413Z,76.86
2019-05-21T02:43:33.101Z,76.28
2019-05-21T02:49:14.495Z,76.33
2019-05-21T02:54:41.084Z,76.23
2019-05-21T03:00:02.124Z,75.83
2019-05-21T03:05:24.434Z,75.69
2019-05-21T03:10:45.983Z,76.06
2019-05-21T03:16:07.986Z,76.63
2019-05-21T03:21:30.102Z,76.42
2019-05-21T03:26:52.370Z,75.82
2019-05-21T03:32:14.524Z,75.80
2019-05-21T03:37:36.239Z,75.58
2019-05-21T03:42:58.111Z,75.06
2019-05-21T03:48:20.135Z,74.74
2019-05-21T03:53:42.607Z,75.90
2019-05-21T03:59:04.286Z,75.91
2019-05-21T04:04:25.943Z,74.83
2019-05-21T04:10:08.168Z,73.92
2019-05-21T04:15:30.530Z,72.52
2019-05-21T04:20:52.123Z,72.60
2019-05-21T04:26:13.998Z,72.87
2019-05-21T04:31:36.007Z,72.07
2019-05-21T04:37:10.126Z,71.03
2019-05-21T04:42:22.233Z,71.46
2019-05-21T04:47:44.044Z,71.11
2019-05-21T04:53:06.005Z,70.62
2019-05-21T04:58:27.988Z,70.55
2019-05-21T05:03:50.608Z,69.73
2019-05-21T05:09:12.712Z,68.69
2019-05-21T05:14:34.906Z,68.28
2019-05-21T05:19:56.972Z,67.61
2019-05-21T05:25:19.003Z,67.00
2019-05-21T05:30:41.152Z,66.77
2019-05-21T05:36:03.279Z,66.74
2019-05-21T05:41:25.261Z,66.45
2019-05-21T05:46:46.814Z,65.32
2019-05-21T05:52:08.573Z,65.49
2019-05-21T05:57:30.214Z,65.49
2019-05-21T06:02:51.922Z,65.13
2019-05-21T06:08:13.465Z,64.57
2019-05-21T06:13:35.004Z,63.27
2019-05-21T06:18:56.876Z,63.34
2019-05-21T06:24:18.829Z,64.77
2019-05-21T06:29:41.403Z,63.73
2019-05-21T06:35:03.446Z,62.87
2019-05-21T06:40:25.160Z,62.53
2019-05-21T06:45:46.946Z,61.75
2019-05-21T06:51:08.650Z,62.32
2019-05-21T06:56:30.083Z,61.96
2019-05-21T07:01:51.821Z,59.91
2019-05-21T07:07:13.275Z,59.81
2019-05-21T07:12:35.101Z,59.31
2019-05-21T07:17:56.770Z,60.42
2019-05-21T07:23:18.268Z,56.57
2019-05-21T07:28:39.990Z,55.82
2019-05-21T07:34:02.105Z,55.23
2019-05-21T07:39:23.841Z,53.19
2019-05-21T07:44:45.601Z,53.99
2019-05-21T07:50:07.504Z,53.08
2019-05-21T07:55:29.634Z,52.59
2019-05-21T08:00:51.126Z,53.05
2019-05-21T08:06:15.098Z,51.07
2019-05-21T08:11:37.051Z,52.69
2019-05-21T08:16:59.016Z,52.04
2019-05-21T08:22:20.623Z,53.25
2019-05-21T08:27:42.539Z,53.75
2019-05-21T08:33:04.533Z,54.50
2019-05-21T08:38:26.522Z,51.87
2019-05-21T08:43:48.275Z,52.34
2019-05-21T08:49:10.279Z,52.47
2019-05-21T08:54:48.411Z,51.19
2019-05-21T09:00:12.203Z,50.02
2019-05-21T09:05:33.779Z,49.74
2019-05-21T09:10:55.459Z,48.78
2019-05-21T09:16:17.276Z,51.69
2019-05-21T09:21:38.710Z,48.69
2019-05-21T09:27:00.302Z,49.52
2019-05-21T09:32:23.202Z,46.49
2019-05-21T09:37:44.964Z,48.67
2019-05-21T09:43:06.708Z,48.09
2019-05-21T09:48:28.370Z,47.67
2019-05-21T09:53:50.257Z,48.97
2019-05-21T09:59:27.445Z,47.58
2019-05-21T10:04:49.118Z,49.00
2019-05-21T10:10:11.668Z,48.99
2019-05-21T10:15:33.755Z,46.80
2019-05-21T10:20:55.634Z,44.73
2019-05-21T10:26:17.652Z,46.48
2019-05-21T10:31:39.493Z,40.90
2019-05-21T10:37:01.175Z,39.04
2019-05-21T10:42:23.298Z,39.21
2019-05-21T10:47:45.235Z,39.94
2019-05-21T10:53:08.401Z,38.12
2019-05-21T10:58:30.528Z,35.92
2019-05-21T11:04:10.873Z,33.73
2019-05-21T11:09:33.115Z,31.47
2019-05-21T11:14:55.317Z,36.61
2019-05-21T11:20:17.418Z,36.02
2019-05-21T11:25:42.065Z,34.50
2019-05-21T11:31:03.887Z,34.25
2019-05-21T11:36:25.614Z,35.10
2019-05-21T11:41:47.329Z,32.90
2019-05-21T11:47:08.509Z,33.61
2019-05-21T11:52:30.561Z,35.69
2019-05-21T11:57:52.410Z,35.97
2019-05-21T12:03:14.661Z,33.42
2019-05-21T12:08:36.837Z,32.97
2019-05-21T12:13:58.625Z,34.07
2019-05-21T12:19:20.642Z,33.50
2019-05-21T12:24:43.192Z,32.87
2019-05-21T12:30:06.086Z,33.66
2019-05-21T12:35:27.805Z,35.19
2019-05-21T12:40:49.023Z,32.99
2019-05-21T12:46:13.994Z,30.93
2019-05-21T12:51:35.901Z,29.89
2019-05-21T12:56:57.411Z,28.47
2019-05-21T13:02:19.479Z,26.86
2019-05-21T13:07:41.323Z,25.63
2019-05-21T13:13:03.158Z,26.86
2019-05-21T13:18:24.732Z,27.15
2019-05-21T13:23:46.768Z,27.62
2019-05-21T13:29:08.494Z,27.15
2019-05-21T13:34:30.239Z,27.70
2019-05-21T13:39:52.106Z,27.11
2019-05-21T13:45:14.202Z,27.78
2019-05-21T13:50:36.005Z,28.13
2019-05-21T13:55:57.926Z,27.25
2019-05-21T14:01:38.802Z,28.55
2019-05-21T14:06:45.447Z,28.45
2019-05-21T14:12:07.234Z,27.54
2019-05-21T14:17:29.036Z,27.10
2019-05-21T14:22:50.994Z,28.57
2019-05-21T14:28:12.857Z,29.03
2019-05-21T14:33:35.160Z,27.85
2019-05-21T14:38:56.777Z,27.74
2019-05-21T14:44:18.706Z,28.90
2019-05-21T14:49:43.409Z,27.57
2019-05-21T14:55:05.596Z,27.89
2019-05-21T15:00:34.055Z,29.83
2019-05-21T15:05:58.769Z,30.79
2019-05-21T15:11:20.715Z,32.91
2019-05-21T15:16:42.086Z,34.01
2019-05-21T15:22:04.582Z,35.18
2019-05-21T15:27:26.367Z,35.28
2019-05-21T15:32:48.304Z,41.37
2019-05-21T15:38:10.243Z,45.25
2019-05-21T15:43:31.802Z,51.88
2019-05-21T15:48:54.061Z,57.40
2019-05-21T15:54:15.752Z,63.51
2019-05-21T15:59:37.435Z,63.68
2019-05-21T16:04:59.870Z,66.17
2019-05-21T16:10:21.933Z,69.54
2019-05-21T16:15:43.670Z,75.19
2019-05-21T16:21:05.779Z,78.75
2019-05-21T16:26:27.913Z,82.07
2019-05-21T16:31:50.105Z,79.49
2019-05-21T16:37:12.320Z,75.39
2019-05-21T16:42:33.756Z,73.44
2019-05-21T16:47:55.874Z,70.46
2019-05-21T16:53:18.034Z,67.27
2019-05-21T16:58:40.236Z,66.58
2019-05-21T17:04:02.439Z,66.34
2019-05-21T17:09:28.154Z,65.42
2019-05-21T17:14:50.029Z,64.87
2019-05-21T17:20:13.625Z,69.04
2019-05-21T17:25:35.045Z,68.93
2019-05-21T17:30:56.822Z,67.51
2019-05-21T17:36:18.591Z,68.67
2019-05-21T17:41:40.829Z,67.25
2019-05-21T17:47:02.791Z,65.84
2019-05-21T17:52:24.659Z,67.97
2019-05-21T17:57:50.208Z,69.26
2019-05-21T18:03:12.182Z,67.60
2019-05-21T18:08:34.155Z,68.15
2019-05-21T18:13:56.367Z,67.84
2019-05-21T18:19:18.088Z,65.73
2019-05-21T18:24:39.973Z,65.03
2019-05-21T18:30:03.894Z,63.24
2019-05-21T18:35:25.142Z,63.42
2019-05-21T18:40:46.736Z,61.88
2019-05-21T18:46:08.520Z,61.49
2019-05-21T18:51:30.372Z,59.94
2019-05-21T18:56:52.844Z,59.67
2019-05-21T19:02:15.217Z,59.54
2019-05-21T19:07:37.389Z,60.28
2019-05-21T19:13:00.869Z,60.29
2019-05-21T19:18:22.202Z,61.30
2019-05-21T19:23:46.701Z,61.99
2019-05-21T19:29:08.617Z,62.06
2019-05-21T19:34:30.779Z,63.72
2019-05-21T19:39:52.843Z,65.13
2019-05-21T19:45:15.044Z,65.78
2019-05-21T19:50:37.405Z,66.98
2019-05-21T19:55:59.479Z,67.34
2019-05-21T20:01:21.600Z,65.75
2019-05-21T20:06:44.339Z,66.38
2019-05-21T20:12:07.346Z,66.59
2019-05-21T20:17:30.721Z,68.14
2019-05-21T20:22:52.409Z,69.68
2019-05-21T20:28:14.244Z,70.62
2019-05-21T20:33:37.825Z,70.83
2019-05-21T20:38:59.489Z,72.08
2019-05-21T20:44:21.249Z,73.28
2019-05-21T20:49:44.716Z,73.41
2019-05-21T20:55:07.648Z,73.58
2019-05-21T21:00:40.410Z,74.62
2019-05-21T21:06:03.291Z,74.92
2019-05-21T21:11:25.115Z,75.44
2019-05-21T21:16:47.787Z,75.92
2019-05-21T21:22:09.896Z,75.09
2019-05-21T21:27:31.446Z,74.51
2019-05-21T21:32:54.618Z,73.90
2019-05-21T21:38:23.010Z,73.79
2019-05-21T21:43:45.262Z,74.75
2019-05-21T21:49:08.635Z,74.50
2019-05-21T21:54:30.719Z,75.67
2019-05-21T21:59:52.805Z,76.86
2019-05-21T22:05:14.845Z,77.91
2019-05-21T22:10:38.680Z,77.79
2019-05-21T22:16:00.744Z,78.39
2019-05-21T22:21:22.701Z,79.64
2019-05-21T22:26:44.749Z,78.63
2019-05-21T22:32:06.637Z,78.77
2019-05-21T22:37:29.786Z,79.57
2019-05-21T22:42:51.634Z,79.75
2019-05-21T22:48:13.540Z,79.27
2019-05-21T22:53:35.581Z,79.93
2019-05-21T22:58:57.511Z,79.20
2019-05-21T23:04:19.822Z,78.16
2019-05-21T23:09:41.416Z,77.84
2019-05-21T23:15:04.482Z,77.49
2019-05-21T23:20:27.299Z,75.89
2019-05-21T23:25:50.119Z,75.55
2019-05-21T23:31:12.534Z,74.66
2019-05-21T23:36:34.498Z,74.16
2019-05-21T23:41:56.758Z,74.35
2019-05-21T23:47:19.331Z,74.44
2019-05-21T23:52:41.265Z,73.45
2019-05-21T23:58:03.558Z,71.93
